Time;durP1;ratioP1;P1;durP2;ratioP2;P2;SDS_P1;SDS_P2;PMS_P1;PMS_P2;Temp;Humidity;BMP_temperature;BMP_pressure;BME280_temperature;BME280_humidity;BME280_pressure;Samples;Min_cycle;Max_cycle;Signal;HPM_P1;HPM_P2
2021/05/03 00:00:18;;;;;;;19.42;5.88;;;23.30;36.80;;;;;;1049088;28;20032;-75
2021/05/03 00:00:49;;;;;;;15.13;5.60;;;23.30;36.90;;;;;;1048012;28;20024;-75
2021/05/03 00:01:20;;;;;;;16.77;5.63;;;23.30;36.90;;;;;;1049006;28;20016;-75
2021/05/03 00:01:52;;;;;;;15.57;5.50;;;23.30;36.70;;;;;;1049046;28;20020;-75
2021/05/03 00:02:24;;;;;;;16.88;5.65;;;23.20;36.90;;;;;;1045382;28;20071;-74
2021/05/03 00:02:55;;;;;;;20.45;5.88;;;23.30;36.90;;;;;;1049209;28;20021;-75
2021/05/03 00:03:26;;;;;;;19.83;5.30;;;23.30;37.00;;;;;;1049055;28;20112;-76
2021/05/03 00:03:58;;;;;;;19.42;5.65;;;23.20;36.90;;;;;;1049013;28;20012;-75
2021/05/03 00:04:29;;;;;;;19.75;5.72;;;23.20;36.80;;;;;;1044925;28;20191;-75
2021/05/03 00:05:00;;;;;;;15.35;5.25;;;23.20;36.90;;;;;;1045420;28;20059;-75
2021/05/03 00:05:34;;;;;;;15.35;5.13;;;23.20;36.90;;;;;;1045100;28;20013;-75
2021/05/03 00:06:05;;;;;;;18.40;5.55;;;23.20;37.00;;;;;;1045637;28;20056;-75
2021/05/03 00:06:36;;;;;;;18.10;5.20;;;23.20;37.00;;;;;;1049097;28;20174;-76
2021/05/03 00:07:08;;;;;;;18.63;5.57;;;23.20;37.20;;;;;;1044505;28;20024;-75
2021/05/03 00:07:39;;;;;;;17.83;5.43;;;23.20;37.00;;;;;;1049443;28;20537;-75
2021/05/03 00:08:11;;;;;;;17.45;5.40;;;23.10;37.10;;;;;;1049233;28;20013;-75
2021/05/03 00:08:42;;;;;;;17.27;5.53;;;23.10;37.30;;;;;;1049376;28;20102;-75
2021/05/03 00:09:14;;;;;;;17.52;5.15;;;23.10;37.40;;;;;;1049451;28;20044;-75
2021/05/03 00:09:46;;;;;;;18.40;5.57;;;23.10;37.50;;;;;;1048898;28;20008;-75
2021/05/03 00:10:17;;;;;;;15.80;4.93;;;23.10;37.60;;;;;;1049222;28;20043;-75
2021/05/03 00:10:49;;;;;;;17.48;5.30;;;23.10;37.60;;;;;;1049196;28;20020;-75
2021/05/03 00:11:20;;;;;;;15.65;5.45;;;23.10;37.60;;;;;;1049337;28;20024;-75
2021/05/03 00:11:51;;;;;;;20.13;5.68;;;23.10;37.60;;;;;;1049345;28;20017;-75
2021/05/03 00:12:23;;;;;;;19.08;5.20;;;23.10;37.60;;;;;;1049008;28;20445;-74
2021/05/03 00:12:54;;;;;;;16.10;5.20;;;23.10;37.40;;;;;;1046858;28;20024;-74
2021/05/03 00:13:26;;;;;;;17.52;5.30;;;23.10;37.50;;;;;;1042603;28;20013;-75
2021/05/03 00:13:58;;;;;;;19.42;5.38;;;23.00;37.40;;;;;;1044928;28;20046;-75
2021/05/03 00:14:29;;;;;;;14.30;4.85;;;23.00;37.40;;;;;;1045505;28;20021;-76
2021/05/03 00:15:00;;;;;;;19.48;5.40;;;23.10;37.40;;;;;;1045025;28;20027;-75
2021/05/03 00:15:32;;;;;;;17.08;5.38;;;23.10;37.40;;;;;;1047066;28;20021;-76
2021/05/03 00:16:04;;;;;;;17.10;5.20;;;23.10;37.20;;;;;;1048443;28;20047;-75
2021/05/03 00:16:35;;;;;;;22.02;5.13;;;23.00;37.30;;;;;;1049492;28;20079;-75
2021/05/03 00:17:06;;;;;;;15.18;4.97;;;23.00;37.20;;;;;;1049312;28;20047;-75
2021/05/03 00:17:39;;;;;;;17.85;5.43;;;23.00;37.20;;;;;;1049230;28;20098;-75
2021/05/03 00:18:10;;;;;;;22.42;5.60;;;22.90;37.20;;;;;;1044957;28;20013;-75
2021/05/03 00:18:41;;;;;;;20.30;5.75;;;22.90;37.70;;;;;;1045899;28;20041;-75
2021/05/03 00:19:13;;;;;;;16.42;5.30;;;22.90;37.60;;;;;;1049435;28;20044;-75
2021/05/03 00:19:44;;;;;;;18.90;5.60;;;22.90;37.50;;;;;;1049355;28;20361;-75
2021/05/03 00:20:16;;;;;;;17.13;5.75;;;22.90;37.50;;;;;;1049528;28;20438;-75
2021/05/03 00:20:47;;;;;;;21.90;5.65;;;22.90;37.60;;;;;;1049592;28;20012;-75
2021/05/03 00:21:19;;;;;;;17.98;5.70;;;22.90;37.80;;;;;;1049541;28;20027;-75
2021/05/03 00:21:50;;;;;;;15.80;5.30;;;22.80;37.90;;;;;;1049106;28;20349;-74
2021/05/03 00:22:22;;;;;;;18.95;5.53;;;22.80;37.90;;;;;;1049601;28;20032;-75
2021/05/03 00:22:53;;;;;;;18.77;5.63;;;22.80;37.90;;;;;;1053393;28;20069;-75
2021/05/03 00:23:24;;;;;;;19.52;5.70;;;22.80;38.00;;;;;;1049751;28;20049;-75
2021/05/03 00:23:56;;;;;;;17.45;5.70;;;22.80;38.20;;;;;;1049248;28;20434;-75
2021/05/03 00:24:27;;;;;;;18.98;5.80;;;22.80;38.30;;;;;;1049206;28;20055;-75
2021/05/03 00:24:59;;;;;;;15.35;5.40;;;22.80;38.20;;;;;;1049270;28;20013;-75
2021/05/03 00:25:30;;;;;;;16.85;5.50;;;22.80;38.70;;;;;;1049902;28;20028;-76
2021/05/03 00:26:02;;;;;;;18.63;5.57;;;22.90;37.80;;;;;;1053339;28;20016;-75
2021/05/03 00:26:33;;;;;;;18.67;5.38;;;22.80;37.80;;;;;;1053379;28;20021;-76
2021/05/03 00:27:05;;;;;;;20.85;5.60;;;22.80;38.10;;;;;;1053326;28;20415;-75
2021/05/03 00:27:37;;;;;;;22.17;6.40;;;22.80;38.10;;;;;;1053419;28;20008;-74
2021/05/03 00:28:09;;;;;;;21.77;5.85;;;22.80;38.00;;;;;;1053341;28;20353;-75
2021/05/03 00:28:41;;;;;;;18.63;5.38;;;22.80;37.60;;;;;;1053739;28;20023;-75
2021/05/03 00:29:13;;;;;;;18.92;5.50;;;22.80;38.40;;;;;;1049962;28;20384;-75
2021/05/03 00:29:44;;;;;;;18.45;5.18;;;22.80;37.90;;;;;;1053640;28;20462;-74
2021/05/03 00:30:16;;;;;;;20.38;5.68;;;22.80;37.70;;;;;;1049217;28;20588;-75
2021/05/03 00:30:47;;;;;;;20.88;5.72;;;22.80;37.90;;;;;;1049794;28;20016;-74
2021/05/03 00:31:19;;;;;;;16.52;5.30;;;22.80;38.00;;;;;;1048664;28;20017;-74
2021/05/03 00:31:50;;;;;;;18.23;6.00;;;22.80;38.10;;;;;;1044791;28;20055;-75
2021/05/03 00:32:21;;;;;;;17.17;5.55;;;22.70;37.80;;;;;;1047463;28;20353;-76
2021/05/03 00:32:53;;;;;;;18.15;5.47;;;22.70;37.90;;;;;;1049192;28;20021;-75
2021/05/03 00:33:24;;;;;;;17.70;5.70;;;22.70;37.90;;;;;;1047294;28;20020;-75
2021/05/03 00:33:56;;;;;;;21.88;6.03;;;22.60;38.00;;;;;;1048673;28;20472;-75
2021/05/03 00:34:27;;;;;;;19.17;6.28;;;22.60;38.10;;;;;;1044368;28;20032;-76
2021/05/03 00:34:58;;;;;;;17.15;6.18;;;22.60;38.20;;;;;;1043826;28;20013;-75
2021/05/03 00:35:30;;;;;;;16.40;5.60;;;22.60;38.30;;;;;;1045092;28;20017;-75
2021/05/03 00:36:02;;;;;;;18.27;5.82;;;22.60;38.40;;;;;;1044885;28;20035;-75
2021/05/03 00:36:33;;;;;;;15.68;5.68;;;22.50;38.50;;;;;;1046189;28;20022;-75
2021/05/03 00:37:04;;;;;;;16.27;5.63;;;22.50;38.60;;;;;;1049248;28;20012;-76
2021/05/03 00:37:36;;;;;;;18.65;5.45;;;22.50;38.80;;;;;;1048787;28;20016;-75
2021/05/03 00:38:08;;;;;;;20.45;5.25;;;22.50;38.90;;;;;;1047361;28;20016;-74
2021/05/03 00:38:39;;;;;;;19.33;5.80;;;22.50;38.70;;;;;;1047494;28;20033;-76
2021/05/03 00:39:10;;;;;;;21.20;5.85;;;22.60;38.30;;;;;;1049344;28;20016;-75
2021/05/03 00:39:42;;;;;;;20.48;6.20;;;22.50;38.50;;;;;;1049324;28;20046;-76
2021/05/03 00:40:13;;;;;;;17.23;5.22;;;22.60;38.50;;;;;;1049122;28;20446;-75
2021/05/03 00:40:45;;;;;;;19.08;5.35;;;22.50;38.70;;;;;;1049446;28;20458;-76
2021/05/03 00:41:16;;;;;;;19.55;6.13;;;22.50;38.80;;;;;;1049053;28;20082;-75
2021/05/03 00:41:48;;;;;;;18.55;5.70;;;22.50;38.90;;;;;;1048167;28;20040;-75
2021/05/03 00:42:19;;;;;;;18.63;5.82;;;22.50;38.70;;;;;;1045991;28;20053;-75
2021/05/03 00:42:51;;;;;;;18.15;5.60;;;22.50;38.60;;;;;;1044988;28;20108;-75
2021/05/03 00:43:23;;;;;;;20.67;6.00;;;22.50;38.80;;;;;;1045723;28;20017;-75
2021/05/03 00:43:54;;;;;;;20.77;5.70;;;22.50;39.10;;;;;;1051322;28;20046;-76
2021/05/03 00:44:27;;;;;;;18.33;5.82;;;22.60;38.90;;;;;;1046996;28;20031;-75
2021/05/03 00:45:05;;;;;;;18.25;5.90;;;22.60;38.60;;;;;;1048115;28;20017;-75
2021/05/03 00:45:36;;;;;;;18.63;5.88;;;22.60;38.80;;;;;;1045417;28;20020;-75
2021/05/03 00:46:07;;;;;;;19.63;5.82;;;22.50;38.70;;;;;;1050558;28;20039;-75
2021/05/03 00:46:40;;;;;;;20.13;5.97;;;22.60;38.70;;;;;;1052054;28;20452;-75
2021/05/03 00:47:13;;;;;;;20.88;6.32;;;22.60;38.80;;;;;;1048989;28;20024;-75
2021/05/03 00:47:45;;;;;;;24.63;6.18;;;22.60;38.90;;;;;;1049223;28;20358;-75
2021/05/03 00:48:17;;;;;;;17.75;6.28;;;22.60;38.90;;;;;;1048456;28;20054;-75
2021/05/03 00:48:49;;;;;;;18.85;6.32;;;22.60;39.00;;;;;;1043644;28;20024;-75
2021/05/03 00:49:20;;;;;;;19.90;5.93;;;22.50;38.90;;;;;;1043267;28;20477;-75
2021/05/03 00:49:51;;;;;;;20.48;6.00;;;22.60;38.90;;;;;;1040803;28;20384;-75
2021/05/03 00:50:24;;;;;;;19.30;5.90;;;22.50;38.80;;;;;;1041466;28;20021;-75
2021/05/03 00:50:56;;;;;;;19.00;5.32;;;22.50;39.20;;;;;;1045060;28;20108;-75
2021/05/03 00:51:28;;;;;;;23.75;5.80;;;22.50;39.20;;;;;;1043548;28;20336;-75
2021/05/03 00:52:00;;;;;;;17.25;5.60;;;22.50;39.50;;;;;;1044853;28;20102;-75
2021/05/03 00:52:32;;;;;;;18.67;5.82;;;22.50;38.90;;;;;;1045509;28;20332;-75
2021/05/03 00:53:04;;;;;;;19.45;6.00;;;22.50;38.90;;;;;;1049421;28;20009;-75
2021/05/03 00:53:35;;;;;;;20.92;6.18;;;22.60;39.10;;;;;;1049658;28;20040;-75
2021/05/03 00:54:06;;;;;;;19.85;5.70;;;22.60;39.10;;;;;;1049636;28;20020;-75
2021/05/03 00:54:39;;;;;;;20.60;5.90;;;22.60;39.00;;;;;;1049486;28;20020;-75
2021/05/03 00:55:12;;;;;;;21.05;5.90;;;22.60;38.90;;;;;;1049602;28;20013;-76
2021/05/03 00:55:44;;;;;;;23.27;5.95;;;22.70;38.90;;;;;;1049523;28;20016;-74
2021/05/03 00:56:15;;;;;;;19.60;5.90;;;22.70;38.70;;;;;;1049806;28;20142;-75
2021/05/03 00:56:48;;;;;;;21.13;5.80;;;22.60;38.40;;;;;;1049949;28;20404;-75
2021/05/03 00:57:19;;;;;;;15.35;5.15;;;22.70;38.40;;;;;;1047169;28;20013;-78
2021/05/03 00:57:51;;;;;;;17.65;5.63;;;22.60;38.50;;;;;;1050284;28;20090;-77
2021/05/03 00:58:23;;;;;;;17.77;5.78;;;22.60;38.50;;;;;;1050589;28;20020;-77
2021/05/03 00:58:54;;;;;;;22.50;5.47;;;22.60;39.00;;;;;;1050863;28;20093;-76
2021/05/03 00:59:26;;;;;;;21.80;5.70;;;22.60;39.00;;;;;;1046676;28;20331;-75
2021/05/03 00:59:57;;;;;;;19.38;6.03;;;22.60;38.60;;;;;;1045724;28;20009;-77
2021/05/03 01:00:29;;;;;;;16.52;5.50;;;22.70;38.70;;;;;;1046193;28;20101;-76
2021/05/03 01:01:01;;;;;;;25.30;6.10;;;22.60;38.60;;;;;;1051124;28;20090;-76
2021/05/03 01:01:32;;;;;;;22.75;6.20;;;22.70;38.80;;;;;;1050689;28;20020;-78
2021/05/03 01:02:04;;;;;;;18.58;5.97;;;22.70;38.90;;;;;;1049467;28;20016;-75
2021/05/03 01:02:37;;;;;;;18.02;5.80;;;22.70;38.70;;;;;;1048903;28;20092;-75
2021/05/03 01:03:08;;;;;;;19.90;6.18;;;22.80;38.40;;;;;;1049164;28;20031;-75
2021/05/03 01:03:40;;;;;;;19.85;6.28;;;22.70;38.50;;;;;;1049366;28;20020;-75
2021/05/03 01:04:11;;;;;;;20.35;6.30;;;22.70;38.70;;;;;;1049228;28;20009;-75
2021/05/03 01:04:43;;;;;;;17.40;5.97;;;22.60;38.70;;;;;;1048989;28;20347;-74
2021/05/03 01:05:14;;;;;;;21.48;6.10;;;22.60;38.70;;;;;;1049193;28;20095;-75
2021/05/03 01:05:46;;;;;;;21.83;5.68;;;22.60;38.80;;;;;;1049142;28;20008;-75
2021/05/03 01:06:18;;;;;;;20.95;5.65;;;22.60;38.90;;;;;;1049027;28;20067;-74
2021/05/03 01:06:49;;;;;;;18.98;5.55;;;22.60;39.00;;;;;;1048973;28;20016;-75
2021/05/03 01:07:21;;;;;;;25.95;5.90;;;22.60;39.10;;;;;;1049064;28;20314;-75
2021/05/03 01:07:52;;;;;;;22.23;5.90;;;22.60;39.20;;;;;;1048994;28;20017;-75
2021/05/03 01:08:24;;;;;;;17.60;5.82;;;22.60;39.20;;;;;;1048762;28;20141;-75
2021/05/03 01:08:55;;;;;;;21.77;6.10;;;22.50;39.10;;;;;;1048063;28;20025;-75
2021/05/03 01:09:27;;;;;;;20.63;5.68;;;22.50;39.20;;;;;;1047070;28;20017;-75
2021/05/03 01:09:58;;;;;;;17.17;5.72;;;22.50;39.10;;;;;;1043147;28;20348;-75
2021/05/03 01:10:30;;;;;;;19.77;5.93;;;22.50;39.20;;;;;;1048907;28;20067;-76
2021/05/03 01:11:02;;;;;;;19.85;5.85;;;22.50;39.30;;;;;;1044891;28;20013;-75
2021/05/03 01:11:35;;;;;;;19.88;6.50;;;22.50;39.40;;;;;;1040614;28;20027;-75
2021/05/03 01:12:08;;;;;;;22.27;6.30;;;22.50;39.40;;;;;;1038335;28;20011;-76
2021/05/03 01:12:40;;;;;;;17.17;5.60;;;22.50;39.40;;;;;;1042704;28;20018;-75
2021/05/03 01:13:12;;;;;;;22.40;6.25;;;22.50;40.10;;;;;;1042757;28;20489;-75
2021/05/03 01:13:43;;;;;;;20.20;5.80;;;22.40;39.50;;;;;;1044914;28;20017;-75
2021/05/03 01:14:15;;;;;;;22.80;5.55;;;22.40;39.70;;;;;;1045021;28;20376;-75
2021/05/03 01:14:46;;;;;;;17.73;6.00;;;22.40;39.80;;;;;;1047428;28;20028;-75
2021/05/03 01:15:22;;;;;;;24.98;6.32;;;22.40;39.80;;;;;;1048546;28;20028;-76
2021/05/03 01:15:54;;;;;;;19.85;6.20;;;22.40;39.60;;;;;;1045116;28;20017;-76
2021/05/03 01:16:25;;;;;;;22.42;6.13;;;22.40;39.50;;;;;;1045003;28;20021;-75
2021/05/03 01:16:56;;;;;;;21.05;6.00;;;22.30;39.60;;;;;;1047606;28;20560;-75
2021/05/03 01:17:35;;;;;;;21.77;6.05;;;22.30;39.80;;;;;;1049196;28;20019;-77
2021/05/03 01:18:07;;;;;;;20.33;5.85;;;22.20;39.60;;;;;;1047092;28;20032;-76
2021/05/03 01:18:39;;;;;;;21.88;6.00;;;22.10;39.70;;;;;;1045463;28;20151;-75
2021/05/03 01:19:10;;;;;;;19.05;5.72;;;22.10;39.90;;;;;;1045037;28;20102;-76
2021/05/03 01:19:42;;;;;;;19.33;5.70;;;22.10;40.10;;;;;;1044994;28;20032;-76
2021/05/03 01:20:15;;;;;;;22.25;6.03;;;22.00;40.10;;;;;;1045250;28;20130;-77
2021/05/03 01:20:46;;;;;;;20.80;5.50;;;22.00;40.30;;;;;;1046850;28;20029;-76
2021/05/03 01:21:28;;;;;;;19.20;6.10;;;21.90;40.40;;;;;;1047998;28;20016;-76
2021/05/03 01:22:00;;;;;;;18.05;5.57;;;21.90;40.70;;;;;;1045596;28;20025;-76
2021/05/03 01:22:35;;;;;;;19.00;6.18;;;21.80;40.80;;;;;;1048908;28;20020;-76
2021/05/03 01:23:08;;;;;;;18.85;5.68;;;21.80;40.90;;;;;;1049212;28;20055;-76
2021/05/03 01:23:39;;;;;;;22.30;6.28;;;21.70;41.10;;;;;;1046429;28;20421;-75
2021/05/03 01:24:11;;;;;;;19.77;5.68;;;21.70;41.10;;;;;;1047119;28;20040;-75
2021/05/03 01:24:42;;;;;;;25.13;5.97;;;21.70;40.80;;;;;;1050573;28;20031;-76
2021/05/03 01:25:14;;;;;;;17.48;5.40;;;21.70;41.00;;;;;;1051707;28;20004;-75
2021/05/03 01:25:45;;;;;;;18.25;6.15;;;21.70;40.80;;;;;;1046843;28;20058;-75
2021/05/03 01:26:17;;;;;;;22.33;6.28;;;21.70;40.80;;;;;;1046112;28;20070;-75
2021/05/03 01:26:48;;;;;;;19.67;5.85;;;21.70;40.80;;;;;;1049192;28;20027;-75
2021/05/03 01:27:19;;;;;;;19.40;5.45;;;21.70;40.90;;;;;;1049142;28;20483;-75
2021/05/03 01:27:51;;;;;;;22.52;5.90;;;21.70;41.10;;;;;;1050344;28;20067;-76
2021/05/03 01:28:22;;;;;;;21.13;6.03;;;21.70;40.80;;;;;;1049062;28;20024;-75
2021/05/03 01:28:54;;;;;;;21.42;6.75;;;21.70;40.80;;;;;;1049237;28;20066;-75
2021/05/03 01:29:26;;;;;;;20.38;5.97;;;21.60;41.00;;;;;;1048996;28;20012;-75
2021/05/03 01:29:57;;;;;;;20.20;5.72;;;21.70;41.20;;;;;;1048963;28;20091;-76
2021/05/03 01:30:35;;;;;;;19.15;6.00;;;21.70;41.20;;;;;;1048114;28;20049;-75
2021/05/03 01:31:06;;;;;;;19.45;5.72;;;21.70;41.00;;;;;;1045889;28;20107;-75
2021/05/03 01:31:37;;;;;;;21.88;6.22;;;21.60;41.10;;;;;;1044888;28;20017;-74
2021/05/03 01:32:09;;;;;;;22.85;6.18;;;21.50;41.30;;;;;;1044650;28;20117;-74
2021/05/03 01:32:40;;;;;;;21.52;6.03;;;21.60;41.30;;;;;;1045207;28;20320;-74
2021/05/03 01:33:13;;;;;;;20.67;5.68;;;21.50;41.90;;;;;;1048867;28;20024;-74
2021/05/03 01:33:45;;;;;;;20.80;5.68;;;21.50;41.20;;;;;;1044823;28;20021;-75
2021/05/03 01:34:17;;;;;;;19.60;5.57;;;21.50;41.30;;;;;;1044665;28;20107;-75
2021/05/03 01:34:49;;;;;;;22.90;5.75;;;21.50;41.50;;;;;;1044811;28;20021;-74
2021/05/03 01:35:20;;;;;;;20.77;5.88;;;21.50;41.60;;;;;;1044805;28;20086;-74
2021/05/03 01:35:51;;;;;;;20.02;6.07;;;21.50;41.40;;;;;;1044780;28;20408;-75
2021/05/03 01:36:23;;;;;;;23.35;5.93;;;21.40;41.60;;;;;;1043125;28;20519;-75
2021/05/03 01:36:54;;;;;;;19.50;5.88;;;21.40;41.50;;;;;;1044171;28;20363;-75
2021/05/03 01:37:25;;;;;;;23.05;6.40;;;21.40;41.70;;;;;;1045960;28;20544;-75
2021/05/03 01:37:58;;;;;;;22.30;6.22;;;21.40;41.90;;;;;;1048403;28;20047;-75
2021/05/03 01:38:30;;;;;;;25.08;6.05;;;21.40;41.80;;;;;;1048929;28;20090;-75
2021/05/03 01:39:01;;;;;;;20.48;6.13;;;21.30;41.60;;;;;;1049171;28;20063;-75
2021/05/03 01:39:33;;;;;;;21.00;5.80;;;21.30;41.80;;;;;;1049184;28;20023;-75
2021/05/03 01:40:05;;;;;;;24.40;6.40;;;21.30;41.80;;;;;;1048619;28;20028;-73
2021/05/03 01:40:38;;;;;;;20.50;6.55;;;21.30;41.90;;;;;;1047635;28;20407;-74
2021/05/03 01:41:09;;;;;;;23.58;6.65;;;21.30;42.00;;;;;;1043620;28;20454;-74
2021/05/03 01:41:41;;;;;;;23.27;6.95;;;21.30;42.00;;;;;;1045285;28;20009;-74
2021/05/03 01:42:12;;;;;;;22.42;6.50;;;21.30;42.00;;;;;;1044609;28;20496;-74
2021/05/03 01:42:43;;;;;;;20.75;5.95;;;21.30;42.00;;;;;;1044416;28;20041;-74
2021/05/03 01:43:20;;;;;;;22.33;6.15;;;21.30;42.00;;;;;;1045597;28;20056;-74
2021/05/03 01:43:52;;;;;;;19.27;6.05;;;21.30;42.00;;;;;;1050102;28;20035;-74
2021/05/03 01:44:24;;;;;;;23.83;6.80;;;21.30;42.00;;;;;;1048659;28;20033;-74
2021/05/03 01:45:00;;;;;;;22.83;6.18;;;21.30;41.90;;;;;;1051840;28;20024;-73
2021/05/03 01:45:35;;;;;;;21.92;6.40;;;21.20;42.00;;;;;;1049080;28;20021;-73
2021/05/03 01:46:06;;;;;;;23.00;6.45;;;21.20;42.10;;;;;;1048590;28;20020;-75
2021/05/03 01:46:38;;;;;;;20.70;6.50;;;21.30;42.70;;;;;;1048894;28;20409;-74
2021/05/03 01:47:10;;;;;;;24.10;6.30;;;21.20;42.20;;;;;;1048486;28;20511;-74
2021/05/03 01:47:42;;;;;;;24.10;6.30;;;21.20;42.20;;;;;;1048258;28;20074;-74
2021/05/03 01:48:19;;;;;;;23.40;6.60;;;21.20;42.10;;;;;;1048015;28;20068;-74
2021/05/03 01:48:51;;;;;;;23.60;6.10;;;21.20;42.30;;;;;;1044606;28;20100;-75
2021/05/03 01:49:22;;;;;;;23.90;6.32;;;21.20;42.40;;;;;;1048264;28;20021;-74
2021/05/03 01:49:54;;;;;;;20.40;5.90;;;21.20;42.50;;;;;;1048735;28;20025;-74
2021/05/03 01:50:25;;;;;;;19.20;5.90;;;21.10;42.50;;;;;;1048914;28;20017;-74
2021/05/03 01:50:58;;;;;;;23.77;6.20;;;21.10;42.50;;;;;;1048101;28;20077;-74
2021/05/03 01:51:31;;;;;;;24.35;6.32;;;21.10;42.50;;;;;;1044393;28;20027;-73
2021/05/03 01:52:04;;;;;;;18.98;5.53;;;21.10;42.50;;;;;;1047974;28;20503;-74
2021/05/03 01:52:37;;;;;;;19.35;5.72;;;21.10;42.50;;;;;;1048619;28;20012;-74
2021/05/03 01:53:09;;;;;;;20.92;5.93;;;21.00;42.60;;;;;;1048316;28;20017;-73
2021/05/03 01:53:40;;;;;;;21.63;5.93;;;21.00;42.70;;;;;;1048356;28;20028;-74
2021/05/03 01:54:11;;;;;;;21.23;6.25;;;21.00;42.70;;;;;;1048794;28;20335;-75
2021/05/03 01:54:43;;;;;;;25.05;6.32;;;20.90;42.70;;;;;;1049866;28;20020;-74
2021/05/03 01:55:15;;;;;;;21.80;6.47;;;20.90;42.70;;;;;;1044589;28;20103;-74
2021/05/03 01:55:49;;;;;;;24.65;6.25;;;20.90;42.80;;;;;;1044741;28;20017;-73
2021/05/03 01:56:23;;;;;;;19.63;6.13;;;20.80;42.90;;;;;;1044588;28;20065;-74
2021/05/03 01:56:54;;;;;;;24.67;6.53;;;20.80;43.00;;;;;;1045000;28;20445;-75
2021/05/03 01:57:26;;;;;;;21.83;6.30;;;20.90;43.10;;;;;;1044406;28;20136;-75
2021/05/03 01:57:57;;;;;;;21.85;6.47;;;20.90;43.20;;;;;;1044725;28;20096;-75
2021/05/03 01:58:29;;;;;;;17.42;6.07;;;20.80;43.10;;;;;;1046679;28;20024;-75
2021/05/03 01:59:00;;;;;;;21.05;6.07;;;20.90;43.20;;;;;;1044713;28;20025;-74
2021/05/03 01:59:34;;;;;;;21.85;6.35;;;20.80;43.00;;;;;;1045092;28;20032;-74
2021/05/03 02:00:07;;;;;;;22.77;6.50;;;20.80;43.10;;;;;;1044949;28;20021;-75
2021/05/03 02:00:39;;;;;;;21.63;6.18;;;20.80;43.20;;;;;;1048697;28;20449;-74
2021/05/03 02:01:10;;;;;;;20.40;6.28;;;20.80;43.30;;;;;;1048684;28;20494;-75
2021/05/03 02:01:42;;;;;;;22.27;6.95;;;20.80;43.30;;;;;;1048893;28;20009;-75
2021/05/03 02:02:13;;;;;;;27.70;6.20;;;20.80;43.30;;;;;;1044733;28;20032;-75
2021/05/03 02:02:49;;;;;;;21.60;6.22;;;20.80;43.30;;;;;;1045109;28;20114;-75
2021/05/03 02:03:24;;;;;;;22.42;6.68;;;20.70;43.10;;;;;;1048696;28;20027;-75
2021/05/03 02:03:56;;;;;;;31.17;10.52;;;20.70;43.30;;;;;;1044967;28;20035;-75
2021/05/03 02:04:27;;;;;;;19.25;6.05;;;20.80;43.40;;;;;;1044971;28;20017;-75
2021/05/03 02:04:59;;;;;;;19.48;6.05;;;20.70;44.00;;;;;;1047115;28;20070;-75
2021/05/03 02:05:31;;;;;;;19.60;6.05;;;20.60;43.60;;;;;;1045080;28;20025;-75
2021/05/03 02:06:03;;;;;;;21.85;6.13;;;20.60;43.80;;;;;;1044872;28;20017;-75
2021/05/03 02:06:36;;;;;;;20.40;6.10;;;20.60;44.00;;;;;;1044624;28;20017;-75
2021/05/03 02:08:05;;;;;;;24.00;5.93;;;20.50;44.00;;;;;;1044764;28;20103;-74
2021/05/03 02:08:36;;;;;;;23.63;6.30;;;20.40;44.00;;;;;;1044484;28;20024;-75
2021/05/03 02:09:12;;;;;;;21.60;6.47;;;20.40;44.10;;;;;;1044710;28;20055;-74
2021/05/03 02:09:44;;;;;;;22.88;6.25;;;20.30;44.20;;;;;;1040492;28;20022;-75
2021/05/03 02:10:16;;;;;;;20.42;5.97;;;20.30;44.30;;;;;;1041574;28;20491;-75
2021/05/03 02:10:49;;;;;;;21.35;6.20;;;20.20;44.40;;;;;;1040475;28;20390;-74
2021/05/03 02:11:21;;;;;;;25.83;6.45;;;20.20;44.50;;;;;;1042812;28;20029;-74
2021/05/03 02:11:52;;;;;;;18.38;6.13;;;20.20;44.70;;;;;;1048656;28;20028;-74
2021/05/03 02:12:23;;;;;;;24.80;6.68;;;20.20;44.80;;;;;;1048775;28;20158;-74
2021/05/03 02:12:57;;;;;;;23.70;6.35;;;20.20;44.80;;;;;;1049026;28;20381;-75
2021/05/03 02:13:29;;;;;;;28.42;6.55;;;20.10;44.80;;;;;;1048989;28;20398;-74
2021/05/03 02:14:01;;;;;;;24.23;6.40;;;20.10;44.90;;;;;;1048719;28;20112;-74
2021/05/03 02:14:32;;;;;;;20.88;6.32;;;20.10;45.00;;;;;;1048751;28;20021;-74
2021/05/03 02:15:07;;;;;;;24.50;6.80;;;20.00;45.00;;;;;;1044562;28;20112;-74
2021/05/03 02:15:39;;;;;;;26.45;6.35;;;20.00;45.20;;;;;;1044643;28;20013;-75
2021/05/03 02:16:10;;;;;;;25.42;6.20;;;20.00;45.20;;;;;;1040351;28;20021;-74
2021/05/03 02:16:43;;;;;;;24.77;6.47;;;19.90;45.30;;;;;;1037899;28;20049;-75
2021/05/03 02:17:14;;;;;;;22.70;6.18;;;19.90;45.50;;;;;;1044395;28;20025;-74
2021/05/03 02:17:46;;;;;;;26.92;6.65;;;19.80;45.60;;;;;;1045293;28;20090;-74
2021/05/03 02:18:18;;;;;;;26.85;6.72;;;19.80;45.70;;;;;;1048620;28;20063;-75
2021/05/03 02:18:49;;;;;;;24.42;7.00;;;19.80;45.80;;;;;;1048596;28;20024;-74
2021/05/03 02:19:21;;;;;;;22.58;6.57;;;19.70;45.90;;;;;;1048745;28;20021;-74
2021/05/03 02:19:52;;;;;;;20.33;6.32;;;19.70;46.00;;;;;;1048695;28;20537;-74
2021/05/03 02:20:23;;;;;;;27.45;6.43;;;19.70;46.00;;;;;;1044279;28;20219;-74
2021/05/03 02:20:55;;;;;;;27.77;6.47;;;19.60;46.00;;;;;;1040363;28;20021;-75
2021/05/03 02:21:27;;;;;;;31.73;6.75;;;19.60;46.10;;;;;;1041063;28;20045;-74
2021/05/03 02:21:58;;;;;;;28.02;6.72;;;19.60;46.30;;;;;;1044979;28;20021;-74
2021/05/03 02:22:30;;;;;;;25.23;6.30;;;19.50;46.40;;;;;;1048677;28;20103;-74
2021/05/03 02:23:01;;;;;;;24.00;6.15;;;19.50;46.40;;;;;;1044398;28;20029;-75
2021/05/03 02:23:33;;;;;;;23.25;6.75;;;19.50;46.60;;;;;;1045078;28;20021;-74
2021/05/03 02:24:05;;;;;;;32.05;7.55;;;19.40;46.80;;;;;;1048341;28;20027;-74
2021/05/03 02:24:36;;;;;;;25.52;7.00;;;19.40;46.80;;;;;;1045668;28;20068;-74
2021/05/03 02:25:08;;;;;;;24.65;6.38;;;19.40;46.90;;;;;;1049948;28;20119;-73
2021/05/03 02:25:39;;;;;;;25.02;6.95;;;19.30;47.00;;;;;;1048263;28;20093;-75
2021/05/03 02:26:11;;;;;;;22.40;6.60;;;19.30;47.10;;;;;;1044788;28;20013;-74
2021/05/03 02:26:42;;;;;;;26.80;6.50;;;19.30;47.20;;;;;;1044883;28;20088;-74
2021/05/03 02:27:13;;;;;;;21.73;6.13;;;19.20;47.20;;;;;;1047795;28;20100;-74
2021/05/03 02:27:45;;;;;;;24.45;6.47;;;19.20;47.40;;;;;;1048831;28;20111;-74
2021/05/03 02:28:16;;;;;;;27.27;6.50;;;19.20;47.40;;;;;;1048466;28;20370;-74
2021/05/03 02:28:50;;;;;;;28.33;7.20;;;19.20;47.40;;;;;;1048478;28;20005;-74
2021/05/03 02:29:22;;;;;;;26.38;7.05;;;19.10;47.50;;;;;;1048560;28;20072;-74
2021/05/03 02:29:53;;;;;;;24.98;6.72;;;19.10;48.20;;;;;;1048602;28;20012;-74
2021/05/03 02:30:25;;;;;;;25.77;6.57;;;19.10;47.50;;;;;;1048753;28;20478;-74
2021/05/03 02:30:57;;;;;;;28.67;7.50;;;19.10;47.70;;;;;;1048406;28;20017;-74
2021/05/03 02:31:28;;;;;;;25.42;6.82;;;19.10;47.80;;;;;;1048491;28;20012;-74
2021/05/03 02:31:59;;;;;;;31.95;7.30;;;19.00;47.80;;;;;;1048527;28;20484;-74
2021/05/03 02:32:35;;;;;;;30.85;7.07;;;19.10;48.00;;;;;;1047645;28;20005;-74
2021/05/03 02:33:07;;;;;;;26.48;7.93;;;19.00;47.90;;;;;;1047792;28;20024;-74
2021/05/03 02:33:38;;;;;;;30.50;7.95;;;19.00;48.00;;;;;;1047317;28;20040;-75
2021/05/03 02:34:10;;;;;;;24.33;6.70;;;19.00;48.00;;;;;;1048170;28;20024;-75
2021/05/03 02:34:41;;;;;;;29.85;7.00;;;18.90;48.20;;;;;;1048465;28;20040;-74
2021/05/03 02:35:18;;;;;;;27.15;7.30;;;18.90;48.40;;;;;;1048102;28;20024;-73
2021/05/03 02:35:50;;;;;;;29.65;7.65;;;18.80;48.40;;;;;;1044813;28;20013;-74
2021/05/03 02:36:21;;;;;;;25.98;7.57;;;18.80;48.50;;;;;;1050096;28;20071;-74
2021/05/03 02:36:55;;;;;;;27.20;7.05;;;18.80;48.60;;;;;;1051627;28;20016;-74
2021/05/03 02:37:27;;;;;;;27.65;7.18;;;18.70;48.80;;;;;;1052343;28;20016;-74
2021/05/03 02:38:00;;;;;;;31.38;7.57;;;18.70;48.90;;;;;;1051787;28;20019;-74
2021/05/03 02:38:31;;;;;;;23.25;6.70;;;18.70;48.90;;;;;;1048137;28;20016;-74
2021/05/03 02:39:04;;;;;;;27.90;7.60;;;18.60;48.90;;;;;;1046963;28;20021;-74
2021/05/03 02:39:36;;;;;;;21.13;6.63;;;18.60;49.10;;;;;;1044599;28;20016;-74
2021/05/03 02:40:08;;;;;;;29.67;7.43;;;18.50;49.30;;;;;;1047545;28;20012;-74
2021/05/03 02:40:39;;;;;;;25.20;7.28;;;18.50;49.20;;;;;;1047955;28;20017;-74
2021/05/03 02:41:11;;;;;;;27.25;7.00;;;18.50;49.30;;;;;;1048817;28;20004;-73
2021/05/03 02:41:42;;;;;;;30.52;6.85;;;18.50;49.40;;;;;;1048138;28;20013;-73
2021/05/03 02:42:14;;;;;;;29.15;7.72;;;18.40;49.50;;;;;;1046930;28;20029;-74
2021/05/03 02:42:51;;;;;;;28.08;7.63;;;18.40;49.60;;;;;;1040303;28;20013;-74
2021/05/03 02:43:22;;;;;;;27.15;7.32;;;18.40;49.50;;;;;;1041719;28;20014;-74
2021/05/03 02:43:54;;;;;;;31.13;7.55;;;18.40;49.70;;;;;;1046912;28;20021;-73
2021/05/03 02:44:25;;;;;;;26.77;7.10;;;18.40;49.70;;;;;;1045576;28;20032;-74
2021/05/03 02:44:57;;;;;;;24.50;6.85;;;18.40;49.80;;;;;;1048532;28;20020;-75